Time;durP1;ratioP1;P1;durP2;ratioP2;P2;SDS_P1;SDS_P2;PMS_P1;PMS_P2;Temp;Humidity;BMP_temperature;BMP_pressure;BME280_temperature;BME280_humidity;BME280_pressure;Samples;Min_cycle;Max_cycle;Signal;HPM_P1;HPM_P2
2021/09/22 00:00:39;;;;;;;4.27;2.60;;;13.60;95.40;;;;;;5032856;28;20228;-70
2021/09/22 00:03:04;;;;;;;2.77;2.57;;;13.60;95.40;;;;;;5049293;28;20228;-70
2021/09/22 00:05:30;;;;;;;3.53;2.17;;;13.60;95.40;;;;;;5048579;28;20208;-70
2021/09/22 00:07:56;;;;;;;3.53;2.40;;;13.60;95.40;;;;;;5044493;28;20258;-71
2021/09/22 00:10:22;;;;;;;2.90;2.63;;;13.50;95.70;;;;;;5051064;28;20218;-71
2021/09/22 00:12:48;;;;;;;2.80;2.60;;;13.50;95.40;;;;;;5051908;28;20489;-70
2021/09/22 00:15:16;;;;;;;2.80;2.20;;;13.40;95.40;;;;;;5052729;28;20227;-70
2021/09/22 00:17:41;;;;;;;2.50;2.30;;;13.40;95.50;;;;;;5064284;28;20492;-70
2021/09/22 00:20:09;;;;;;;3.97;2.43;;;13.40;95.50;;;;;;5017597;28;20447;-70
2021/09/22 00:22:35;;;;;;;3.70;2.77;;;13.40;95.40;;;;;;5050440;28;20360;-70
2021/09/22 00:25:01;;;;;;;2.63;2.27;;;13.40;95.40;;;;;;5036991;28;20517;-70
2021/09/22 00:27:26;;;;;;;4.50;2.40;;;13.30;95.40;;;;;;5069024;28;20694;-70
2021/09/22 00:29:52;;;;;;;3.23;2.40;;;13.30;95.50;;;;;;5053181;28;20223;-70
2021/09/22 00:32:17;;;;;;;2.83;2.33;;;13.30;95.40;;;;;;5044255;28;20375;-71
2021/09/22 00:34:43;;;;;;;4.53;3.13;;;13.30;95.50;;;;;;5036675;28;20235;-71
2021/09/22 00:37:09;;;;;;;2.37;2.10;;;13.20;95.50;;;;;;5071720;28;20281;-69
2021/09/22 00:39:34;;;;;;;2.70;2.33;;;13.30;95.60;;;;;;5036450;28;20219;-70
2021/09/22 00:42:02;;;;;;;3.60;2.47;;;13.20;95.50;;;;;;5037075;28;20231;-71
2021/09/22 00:44:28;;;;;;;2.40;2.10;;;13.20;95.50;;;;;;5051973;28;21000;-70
2021/09/22 00:46:54;;;;;;;9.40;2.80;;;13.20;95.50;;;;;;5045447;28;20454;-70
2021/09/22 00:49:19;;;;;;;3.37;2.40;;;13.20;95.50;;;;;;5052710;28;20217;-70
2021/09/22 00:51:50;;;;;;;2.37;2.07;;;13.20;95.50;;;;;;5028181;28;20794;-70
2021/09/22 00:54:17;;;;;;;2.50;2.00;;;13.20;95.50;;;;;;5052956;28;20460;-70
2021/09/22 00:56:44;;;;;;;2.93;2.63;;;13.20;95.50;;;;;;5032512;28;20454;-70
2021/09/22 00:59:10;;;;;;;2.50;2.30;;;13.20;95.60;;;;;;5033352;28;20466;-69
2021/09/22 01:01:36;;;;;;;2.90;2.50;;;13.10;95.60;;;;;;5032090;28;20504;-71
2021/09/22 01:04:03;;;;;;;3.40;2.50;;;13.10;95.60;;;;;;5034729;28;20227;-70
2021/09/22 01:06:28;;;;;;;3.83;1.97;;;13.10;95.60;;;;;;5051974;28;20450;-70
2021/09/22 01:08:57;;;;;;;2.57;2.33;;;13.10;95.60;;;;;;5070795;28;20992;-70
2021/09/22 01:11:27;;;;;;;4.70;3.07;;;13.10;95.60;;;;;;5049067;28;20242;-69
2021/09/22 01:13:53;;;;;;;3.27;2.80;;;13.00;95.60;;;;;;5051401;28;20464;-70
2021/09/22 01:16:19;;;;;;;2.80;2.37;;;13.00;95.60;;;;;;5035807;28;20462;-71
2021/09/22 01:18:44;;;;;;;3.10;2.70;;;12.90;95.60;;;;;;5050864;28;20285;-70
2021/09/22 01:21:10;;;;;;;3.60;2.47;;;12.90;95.60;;;;;;5051512;28;20223;-71
2021/09/22 01:23:36;;;;;;;3.20;2.90;;;12.90;95.60;;;;;;5033939;28;20313;-70
2021/09/22 01:26:06;;;;;;;3.00;2.50;;;12.90;95.60;;;;;;5052638;28;20227;-69
2021/09/22 01:28:32;;;;;;;3.50;3.10;;;12.90;95.60;;;;;;5035691;28;20469;-70
2021/09/22 01:31:03;;;;;;;4.23;3.00;;;12.90;95.60;;;;;;5052521;28;20506;-71
2021/09/22 01:33:32;;;;;;;2.70;2.50;;;12.90;95.60;;;;;;5051093;28;20493;-70
2021/09/22 01:36:04;;;;;;;3.53;3.20;;;12.80;95.60;;;;;;5044122;28;20458;-70
2021/09/22 01:38:31;;;;;;;4.20;3.00;;;12.80;95.60;;;;;;5016040;28;20454;-70
2021/09/22 01:41:09;;;;;;;3.23;2.93;;;12.80;95.60;;;;;;5017965;28;20518;-70
2021/09/22 01:43:38;;;;;;;4.30;2.57;;;12.80;95.60;;;;;;5037983;28;20472;-70
2021/09/22 01:46:05;;;;;;;4.00;2.80;;;12.70;95.50;;;;;;5034655;28;20453;-70
2021/09/22 01:48:34;;;;;;;2.97;2.10;;;12.80;95.60;;;;;;5035051;28;21054;-70
2021/09/22 01:51:03;;;;;;;5.33;3.30;;;12.70;95.60;;;;;;5043648;28;20473;-70
2021/09/22 01:53:29;;;;;;;4.77;2.70;;;12.70;95.70;;;;;;5050856;28;20468;-71
2021/09/22 01:55:57;;;;;;;4.10;2.33;;;12.70;95.70;;;;;;5031129;28;20462;-70
2021/09/22 01:58:25;;;;;;;3.47;2.80;;;12.70;95.70;;;;;;5035100;28;20442;-71
2021/09/22 02:00:59;;;;;;;4.07;3.00;;;12.70;95.70;;;;;;5035032;28;20515;-70
2021/09/22 02:03:48;;;;;;;2.90;2.60;;;12.70;95.70;;;;;;5024711;28;20464;-70
2021/09/22 02:06:20;;;;;;;3.27;2.80;;;12.60;95.60;;;;;;5035302;28;20484;-71
2021/09/22 02:08:46;;;;;;;4.47;2.60;;;12.60;95.60;;;;;;5052125;28;20477;-70
2021/09/22 02:11:25;;;;;;;3.40;2.53;;;12.60;95.70;;;;;;5042855;28;20245;-70
2021/09/22 02:13:51;;;;;;;2.77;2.43;;;12.60;95.70;;;;;;5040511;28;20948;-70
2021/09/22 02:16:21;;;;;;;3.20;2.80;;;12.60;95.70;;;;;;5016694;28;20240;-70
2021/09/22 02:19:05;;;;;;;3.30;2.43;;;12.50;95.60;;;;;;5036433;28;20448;-71
2021/09/22 02:21:33;;;;;;;4.80;2.77;;;12.50;95.70;;;;;;5032289;28;20447;-70
2021/09/22 02:24:04;;;;;;;2.70;2.50;;;12.50;95.70;;;;;;5039899;28;20465;-69
2021/09/22 02:26:30;;;;;;;2.87;2.63;;;12.50;95.70;;;;;;5055344;28;20461;-69
2021/09/22 02:28:56;;;;;;;3.13;2.70;;;12.40;95.60;;;;;;5039196;28;20264;-70
2021/09/22 02:31:22;;;;;;;3.50;2.70;;;12.40;95.70;;;;;;5038267;28;20238;-70
2021/09/22 02:33:58;;;;;;;4.07;3.00;;;12.40;95.70;;;;;;5036707;28;20349;-70
2021/09/22 02:36:25;;;;;;;3.13;2.70;;;12.40;95.70;;;;;;5035115;28;21008;-70
2021/09/22 02:39:03;;;;;;;3.03;2.50;;;12.30;95.70;;;;;;5032693;28;20458;-71
2021/09/22 02:41:31;;;;;;;2.50;2.30;;;12.30;95.70;;;;;;5034718;28;20834;-69
2021/09/22 02:43:57;;;;;;;2.93;2.63;;;12.30;95.70;;;;;;5035724;28;20463;-70
2021/09/22 02:46:28;;;;;;;2.50;2.30;;;12.30;95.70;;;;;;5019597;28;20228;-69
2021/09/22 02:49:02;;;;;;;2.97;2.40;;;12.30;95.80;;;;;;5021234;28;20446;-70
2021/09/22 02:51:30;;;;;;;3.43;3.00;;;12.20;95.70;;;;;;5047414;28;20540;-70
2021/09/22 02:53:56;;;;;;;2.70;2.50;;;12.20;95.70;;;;;;5034099;28;20477;-70
2021/09/22 02:56:22;;;;;;;4.63;2.83;;;12.20;95.80;;;;;;5054836;28;20892;-70
2021/09/22 02:58:48;;;;;;;4.50;2.90;;;12.20;96.20;;;;;;5038839;28;20450;-70
2021/09/22 03:01:14;;;;;;;3.27;2.53;;;12.20;95.80;;;;;;5038259;28;20230;-69
2021/09/22 03:03:41;;;;;;;3.90;2.17;;;12.20;95.80;;;;;;5054308;28;20295;-70
2021/09/22 03:06:06;;;;;;;3.20;2.90;;;12.20;95.80;;;;;;5037292;28;20524;-69
2021/09/22 03:08:32;;;;;;;3.60;2.50;;;12.20;95.80;;;;;;5054724;28;20219;-70
2021/09/22 03:11:05;;;;;;;3.47;2.70;;;12.20;95.80;;;;;;5054240;28;20223;-70
2021/09/22 03:13:33;;;;;;;3.63;3.00;;;12.20;95.90;;;;;;5070424;28;20453;-70
2021/09/22 03:16:00;;;;;;;4.23;3.20;;;12.10;95.80;;;;;;5055327;28;20515;-70
2021/09/22 03:18:25;;;;;;;5.40;3.37;;;12.10;95.80;;;;;;5038109;28;20451;-70
2021/09/22 03:20:52;;;;;;;7.03;3.10;;;12.10;95.80;;;;;;5038321;28;20517;-70
2021/09/22 03:23:18;;;;;;;3.13;2.30;;;12.10;95.80;;;;;;5037507;28;20219;-70
2021/09/22 03:25:51;;;;;;;3.37;2.57;;;12.10;95.80;;;;;;5030907;28;20455;-70
2021/09/22 03:28:17;;;;;;;3.90;3.30;;;12.10;95.90;;;;;;5033346;28;20482;-71
2021/09/22 03:30:43;;;;;;;3.60;3.00;;;12.00;95.80;;;;;;5031300;28;20472;-71
2021/09/22 03:33:16;;;;;;;4.20;3.47;;;12.00;95.80;;;;;;5054242;28;20215;-70
2021/09/22 03:35:43;;;;;;;4.10;3.00;;;12.00;95.80;;;;;;5069435;28;20947;-71
2021/09/22 03:38:09;;;;;;;3.50;2.40;;;12.00;95.90;;;;;;5072511;28;20458;-70
2021/09/22 03:40:35;;;;;;;3.13;2.87;;;12.00;95.90;;;;;;5039637;28;20446;-70
2021/09/22 03:43:03;;;;;;;4.00;3.40;;;11.90;95.90;;;;;;5035297;28;20242;-70
2021/09/22 03:45:29;;;;;;;3.50;3.10;;;11.90;95.90;;;;;;5033860;28;20517;-70
2021/09/22 03:47:55;;;;;;;3.03;2.67;;;11.90;95.90;;;;;;5018476;28;20482;-70
2021/09/22 03:50:22;;;;;;;3.90;2.80;;;11.90;95.90;;;;;;5060185;28;20453;-71
2021/09/22 03:53:07;;;;;;;4.50;2.50;;;11.80;95.90;;;;;;5034080;28;20523;-70
2021/09/22 03:55:34;;;;;;;2.50;2.30;;;11.80;95.90;;;;;;5017725;28;20466;-71
2021/09/22 03:58:00;;;;;;;2.87;2.50;;;11.80;95.90;;;;;;5034470;28;20454;-71
2021/09/22 04:00:26;;;;;;;3.30;2.90;;;11.80;95.90;;;;;;5038615;28;20659;-71
2021/09/22 04:02:52;;;;;;;5.80;3.43;;;11.80;95.90;;;;;;5037193;28;20301;-70
2021/09/22 04:05:18;;;;;;;3.60;2.67;;;11.80;95.90;;;;;;5052179;28;20895;-71
2021/09/22 04:07:45;;;;;;;3.63;2.90;;;11.70;96.00;;;;;;5052512;28;20222;-70
2021/09/22 04:10:11;;;;;;;2.53;2.33;;;11.70;95.90;;;;;;5035530;28;20472;-70
2021/09/22 04:12:37;;;;;;;4.40;2.73;;;11.70;95.90;;;;;;5037896;28;20474;-70
2021/09/22 04:15:06;;;;;;;3.00;2.70;;;11.70;95.90;;;;;;5053008;28;20568;-69
2021/09/22 04:17:32;;;;;;;3.33;2.63;;;11.70;95.90;;;;;;5045162;28;20438;-70
2021/09/22 04:19:58;;;;;;;3.20;2.60;;;11.60;95.90;;;;;;5052849;28;20438;-70
2021/09/22 04:22:24;;;;;;;4.47;3.10;;;11.60;95.90;;;;;;5032827;28;20447;-70
2021/09/22 04:24:49;;;;;;;4.00;3.10;;;11.60;95.90;;;;;;5034050;28;20220;-70
2021/09/22 04:27:15;;;;;;;2.70;2.00;;;11.60;96.00;;;;;;5033853;28;20277;-70
2021/09/22 04:29:53;;;;;;;4.03;3.33;;;11.60;95.90;;;;;;5044752;28;20247;-70
2021/09/22 04:32:38;;;;;;;5.57;3.07;;;11.50;95.90;;;;;;5055627;28;20457;-70
2021/09/22 04:35:22;;;;;;;4.60;2.70;;;11.50;95.90;;;;;;5055826;28;20497;-70
2021/09/22 04:38:07;;;;;;;6.00;3.37;;;11.50;95.90;;;;;;5056299;28;20979;-70
2021/09/22 04:40:51;;;;;;;4.13;2.90;;;11.50;95.90;;;;;;5070465;28;20459;-70
2021/09/22 04:43:36;;;;;;;5.43;3.20;;;11.50;95.90;;;;;;5049638;28;20472;-70
2021/09/22 04:46:37;;;;;;;4.83;3.23;;;11.50;95.90;;;;;;4987996;28;20452;-70
2021/09/22 04:49:21;;;;;;;2.40;2.20;;;11.40;95.90;;;;;;5061387;28;20452;-70
2021/09/22 04:52:05;;;;;;;4.23;2.47;;;11.40;95.90;;;;;;5048043;28;20492;-71
2021/09/22 04:54:50;;;;;;;3.07;2.60;;;11.40;96.00;;;;;;5063455;28;20456;-70
2021/09/22 04:57:35;;;;;;;7.43;3.23;;;11.40;96.00;;;;;;5049089;28;20552;-71
2021/09/22 05:00:19;;;;;;;3.67;2.87;;;11.30;95.90;;;;;;5052586;28;21002;-70
2021/09/22 05:03:03;;;;;;;6.47;3.00;;;11.30;95.90;;;;;;5047068;28;20541;-70
2021/09/22 05:05:48;;;;;;;3.37;2.50;;;11.30;95.90;;;;;;5054433;28;20599;-70
2021/09/22 05:08:32;;;;;;;7.00;3.37;;;11.30;96.00;;;;;;5068892;28;20947;-70
2021/09/22 05:11:16;;;;;;;3.47;2.70;;;11.30;95.90;;;;;;5065140;28;20515;-70
2021/09/22 05:14:01;;;;;;;4.43;2.53;;;11.20;96.00;;;;;;5068552;28;20464;-70
2021/09/22 05:16:45;;;;;;;4.27;2.50;;;11.20;96.00;;;;;;5048985;28;20493;-70
2021/09/22 05:19:29;;;;;;;2.93;2.63;;;11.20;96.00;;;;;;5055041;28;20604;-70
2021/09/22 05:22:15;;;;;;;3.57;3.27;;;11.20;96.00;;;;;;5068797;28;20469;-70
2021/09/22 05:24:59;;;;;;;4.43;2.90;;;11.10;96.10;;;;;;5055336;28;20492;-69
2021/09/22 05:27:46;;;;;;;3.93;3.50;;;11.10;96.00;;;;;;5067002;28;20980;-70
2021/09/22 05:30:31;;;;;;;4.03;2.83;;;11.10;96.00;;;;;;5069771;28;20523;-70
2021/09/22 05:33:15;;;;;;;4.90;3.20;;;11.10;96.00;;;;;;5051639;28;20529;-70
2021/09/22 05:36:01;;;;;;;3.17;2.87;;;11.10;96.10;;;;;;5040779;28;20543;-70
2021/09/22 05:38:45;;;;;;;4.90;3.10;;;11.10;96.20;;;;;;5048878;28;20528;-70
2021/09/22 05:41:29;;;;;;;3.50;2.50;;;11.10;96.20;;;;;;5034560;28;20465;-70
2021/09/22 05:44:14;;;;;;;6.87;3.73;;;11.10;96.20;;;;;;5035522;28;20464;-70
2021/09/22 05:47:05;;;;;;;5.17;3.03;;;11.10;96.30;;;;;;5022353;28;20457;-70
2021/09/22 05:49:49;;;;;;;4.47;3.57;;;11.10;96.30;;;;;;5060712;28;20460;-70
2021/09/22 05:52:34;;;;;;;3.77;3.37;;;11.10;96.50;;;;;;5063811;28;21104;-70
2021/09/22 05:55:18;;;;;;;4.67;3.00;;;11.10;96.50;;;;;;5051955;28;20461;-70
2021/09/22 05:58:02;;;;;;;5.40;2.60;;;11.10;96.50;;;;;;5049499;28;20465;-70
2021/09/22 06:01:00;;;;;;;3.53;3.00;;;11.10;96.50;;;;;;5014730;28;20484;-70
2021/09/22 06:03:45;;;;;;;4.40;3.33;;;11.10;96.50;;;;;;5046686;28;20457;-70
2021/09/22 06:06:29;;;;;;;3.77;2.90;;;11.10;96.60;;;;;;5048021;28;20512;-71
2021/09/22 06:09:33;;;;;;;3.10;2.70;;;11.10;96.70;;;;;;5030830;28;20495;-70
2021/09/22 06:12:15;;;;;;;5.13;3.53;;;11.10;96.60;;;;;;5034096;28;20703;-70
2021/09/22 06:14:41;;;;;;;3.77;3.30;;;11.10;96.70;;;;;;5043337;28;20469;-70
2021/09/22 06:17:06;;;;;;;4.90;3.40;;;11.10;96.70;;;;;;5014692;28;20231;-71
2021/09/22 06:19:33;;;;;;;4.80;3.00;;;11.10;96.80;;;;;;5014311;28;20245;-70
2021/09/22 06:21:58;;;;;;;5.33;3.93;;;11.10;96.80;;;;;;5020414;28;20976;-71
2021/09/22 06:24:26;;;;;;;4.37;3.00;;;11.10;96.70;;;;;;5033439;28;20254;-70
2021/09/22 06:27:01;;;;;;;3.57;3.27;;;11.10;96.80;;;;;;5049801;28;20484;-70
2021/09/22 06:29:27;;;;;;;5.10;3.93;;;11.10;97.00;;;;;;5025534;28;20481;-70
2021/09/22 06:31:55;;;;;;;5.80;3.80;;;11.10;97.10;;;;;;5034099;28;20215;-70
2021/09/22 06:34:37;;;;;;;4.53;3.40;;;11.10;97.20;;;;;;5042371;28;20233;-71
2021/09/22 06:37:03;;;;;;;3.20;2.90;;;11.10;97.10;;;;;;5053788;28;20465;-70
2021/09/22 06:39:33;;;;;;;6.03;4.00;;;11.10;97.10;;;;;;5031391;28;20207;-70
2021/09/22 06:41:59;;;;;;;5.90;3.60;;;11.10;97.10;;;;;;5030601;28;20461;-70
2021/09/22 06:44:25;;;;;;;5.33;3.17;;;11.10;97.10;;;;;;5030771;28;20226;-71
2021/09/22 06:46:51;;;;;;;6.10;3.57;;;11.10;97.30;;;;;;5042320;28;20499;-70
2021/09/22 06:49:17;;;;;;;6.57;3.67;;;11.10;97.40;;;;;;5046478;28;20725;-70
2021/09/22 06:51:42;;;;;;;5.33;3.53;;;11.10;97.40;;;;;;5040492;28;20273;-70
2021/09/22 06:54:08;;;;;;;3.77;3.20;;;11.10;97.40;;;;;;5065264;28;20830;-71
2021/09/22 06:56:34;;;;;;;4.40;3.27;;;11.10;97.60;;;;;;5054220;28;20641;-71
2021/09/22 06:58:59;;;;;;;5.50;3.77;;;11.10;97.50;;;;;;5046008;28;20319;-71
2021/09/22 07:01:25;;;;;;;4.93;3.27;;;11.10;97.70;;;;;;5044410;28;20226;-71
2021/09/22 07:03:51;;;;;;;3.70;3.27;;;11.20;97.80;;;;;;5050073;28;20238;-70
2021/09/22 07:06:16;;;;;;;4.80;4.30;;;11.20;97.90;;;;;;5035162;28;20226;-70
2021/09/22 07:08:43;;;;;;;4.10;3.70;;;11.20;98.00;;;;;;5057332;28;20335;-70
2021/09/22 07:11:09;;;;;;;4.70;3.57;;;11.20;98.20;;;;;;5042998;28;21044;-70
2021/09/22 07:13:37;;;;;;;3.77;3.20;;;11.30;98.40;;;;;;5062305;28;20609;-70
2021/09/22 07:16:04;;;;;;;6.40;3.33;;;11.30;99.00;;;;;;5034203;28;20466;-71
2021/09/22 07:18:31;;;;;;;3.53;2.90;;;11.40;98.90;;;;;;5044984;28;20445;-70
2021/09/22 07:20:58;;;;;;;4.53;3.70;;;11.40;98.70;;;;;;5037434;28;20866;-70
2021/09/22 07:23:24;;;;;;;4.10;3.13;;;11.50;99.20;;;;;;5049764;28;20868;-70
2021/09/22 07:25:50;;;;;;;4.67;3.43;;;11.50;98.80;;;;;;5053932;28;20454;-71
2021/09/22 07:28:15;;;;;;;6.53;3.77;;;11.50;98.80;;;;;;5034192;28;20228;-70
2021/09/22 07:30:41;;;;;;;5.20;3.47;;;11.50;98.90;;;;;;5055515;28;20642;-70
2021/09/22 07:33:07;;;;;;;5.47;3.90;;;11.50;99.10;;;;;;5055754;28;20716;-70
2021/09/22 07:35:33;;;;;;;3.10;2.80;;;11.60;99.20;;;;;;5075389;28;20504;-70
2021/09/22 07:37:58;;;;;;;6.83;3.70;;;11.60;99.50;;;;;;5073911;28;20230;-70
2021/09/22 07:40:24;;;;;;;5.17;3.20;;;11.70;99.90;;;;;;5054957;28;20226;-70
2021/09/22 07:42:50;;;;;;;5.20;3.00;;;11.80;99.90;;;;;;5052859;28;20234;-71
2021/09/22 07:45:16;;;;;;;3.00;2.70;;;11.90;99.90;;;;;;5037212;28;20223;-71
2021/09/22 07:47:42;;;;;;;5.57;3.67;;;11.90;99.90;;;;;;5052247;28;20298;-70
2021/09/22 07:50:08;;;;;;;3.13;2.83;;;12.00;99.90;;;;;;5029659;28;20514;-71
2021/09/22 07:52:36;;;;;;;3.80;3.17;;;12.10;99.90;;;;;;5023703;28;20303;-70
2021/09/22 07:55:06;;;;;;;6.07;3.27;;;12.10;99.90;;;;;;5017336;28;20457;-71
2021/09/22 07:57:32;;;;;;;3.90;3.00;;;12.20;99.90;;;;;;5039347;28;20466;-70
2021/09/22 07:59:58;;;;;;;3.70;3.30;;;12.20;99.90;;;;;;5037418;28;20511;-70
2021/09/22 08:02:24;;;;;;;3.63;2.90;;;12.20;99.90;;;;;;5033371;28;20211;-71
2021/09/22 08:04:49;;;;;;;4.40;3.00;;;12.30;99.90;;;;;;5035743;28;20235;-70
2021/09/22 08:07:17;;;;;;;3.77;2.87;;;12.30;99.90;;;;;;5069711;28;20234;-71
2021/09/22 08:09:42;;;;;;;8.20;3.37;;;12.40;99.90;;;;;;5032012;28;20239;-71
2021/09/22 08:12:08;;;;;;;5.80;2.57;;;12.40;99.90;;;;;;5049232;28;20462;-71
2021/09/22 08:14:35;;;;;;;8.30;4.00;;;12.40;99.90;;;;;;5050164;28;20215;-71
2021/09/22 08:17:01;;;;;;;4.23;3.20;;;12.50;99.90;;;;;;5051905;28;20310;-71
2021/09/22 08:19:27;;;;;;;4.80;3.70;;;12.60;99.90;;;;;;5034924;28;20537;-72
2021/09/22 08:21:53;;;;;;;5.57;4.00;;;12.60;99.90;;;;;;5051985;28;20263;-69
2021/09/22 08:24:19;;;;;;;4.13;3.57;;;12.70;99.90;;;;;;5059742;28;21005;-71
2021/09/22 08:26:45;;;;;;;5.60;4.30;;;12.80;99.90;;;;;;5030533;28;20471;-71
2021/09/22 08:29:11;;;;;;;7.77;5.20;;;12.90;99.90;;;;;;5033448;28;20302;-71
2021/09/22 08:31:37;;;;;;;6.43;4.20;;;13.00;99.90;;;;;;5033242;28;20219;-70
2021/09/22 08:34:03;;;;;;;7.27;4.90;;;13.10;99.90;;;;;;5047586;28;20457;-71
2021/09/22 08:36:29;;;;;;;4.40;3.87;;;13.10;99.90;;;;;;5030131;28;20527;-70
2021/09/22 08:38:54;;;;;;;7.93;4.70;;;13.20;99.90;;;;;;5047590;28;20223;-71
2021/09/22 08:41:21;;;;;;;6.00;4.00;;;13.20;99.90;;;;;;5030742;28;20746;-71
2021/09/22 08:43:47;;;;;;;6.10;4.20;;;13.30;99.90;;;;;;5031895;28;20454;-71
2021/09/22 08:46:13;;;;;;;5.60;4.07;;;13.40;99.90;;;;;;5034686;28;20230;-71
2021/09/22 08:48:40;;;;;;;4.97;3.73;;;13.40;99.90;;;;;;5028262;28;20290;-71
2021/09/22 08:51:06;;;;;;;6.80;4.20;;;13.50;99.90;;;;;;5030769;28;20234;-71
2021/09/22 08:53:31;;;;;;;5.27;3.80;;;13.50;99.90;;;;;;5049633;28;20458;-71
2021/09/22 08:55:57;;;;;;;7.27;3.97;;;13.50;99.90;;;;;;5027027;28;20232;-71
2021/09/22 08:58:22;;;;;;;6.90;5.07;;;13.60;99.90;;;;;;5048622;28;20227;-71
2021/09/22 09:00:49;;;;;;;7.33;4.70;;;13.70;99.90;;;;;;5048230;28;20227;-71
2021/09/22 09:03:35;;;;;;;6.00;5.10;;;13.90;99.90;;;;;;5028160;28;20234;-71
2021/09/22 09:06:22;;;;;;;5.70;4.60;;;14.00;99.90;;;;;;5029918;28;20469;-71
2021/09/22 09:08:50;;;;;;;6.40;4.27;;;14.20;99.90;;;;;;5030205;28;20529;-71
2021/09/22 09:11:22;;;;;;;7.23;4.90;;;14.20;99.90;;;;;;5045591;28;20470;-70
2021/09/22 09:13:50;;;;;;;5.27;4.03;;;14.30;99.90;;;;;;5049475;28;20489;-71
2021/09/22 09:16:21;;;;;;;4.57;4.10;;;14.50;99.90;;;;;;5065899;28;20477;-71
2021/09/22 09:18:55;;;;;;;6.70;3.70;;;14.60;99.90;;;;;;5044548;28;20544;-71
2021/09/22 09:21:22;;;;;;;6.90;4.10;;;14.70;99.90;;;;;;5048001;28;20472;-71
2021/09/22 09:23:54;;;;;;;5.70;3.97;;;14.80;99.90;;;;;;5050490;28;20553;-71
2021/09/22 09:26:31;;;;;;;5.40;3.70;;;14.90;99.90;;;;;;5050353;28;20522;-71
2021/09/22 09:28:58;;;;;;;5.07;4.20;;;15.00;99.90;;;;;;5049617;28;20514;-71
2021/09/22 09:31:32;;;;;;;5.67;3.93;;;15.10;99.90;;;;;;5033951;28;20511;-71
2021/09/22 09:34:01;;;;;;;3.40;3.10;;;15.20;99.90;;;;;;5052192;28;20465;-71
2021/09/22 09:36:42;;;;;;;4.60;3.27;;;15.40;99.90;;;;;;5074889;28;20489;-71
2021/09/22 09:39:23;;;;;;;6.27;3.60;;;15.50;99.90;;;;;;5050512;28;21041;-70
2021/09/22 09:41:54;;;;;;;5.23;3.70;;;15.50;99.90;;;;;;5063499;28;20473;-71
2021/09/22 09:44:26;;;;;;;4.20;3.57;;;15.60;99.90;;;;;;5033547;28;20457;-71
2021/09/22 09:46:55;;;;;;;5.90;4.10;;;15.70;99.90;;;;;;5034049;28;20457;-71
2021/09/22 09:49:28;;;;;;;3.70;3.40;;;15.70;99.90;;;;;;5045731;28;21037;-70
2021/09/22 09:51:59;;;;;;;4.07;3.67;;;15.80;99.90;;;;;;5045127;28;20479;-71
2021/09/22 09:54:36;;;;;;;5.17;3.53;;;15.80;99.90;;;;;;5032196;28;20460;-71
2021/09/22 09:57:14;;;;;;;3.63;3.33;;;15.80;99.90;;;;;;5046073;28;20492;-71
2021/09/22 09:59:50;;;;;;;3.47;3.17;;;15.90;99.90;;;;;;5058547;28;20899;-69
2021/09/22 10:02:28;;;;;;;3.00;2.70;;;16.10;99.90;;;;;;5048115;28;20540;-71
2021/09/22 10:04:54;;;;;;;4.77;3.70;;;16.20;99.90;;;;;;5049052;28;20461;-71
2021/09/22 10:07:20;;;;;;;3.60;3.10;;;16.40;99.90;;;;;;5055089;28;20496;-71
2021/09/22 10:09:46;;;;;;;3.73;3.03;;;16.50;99.90;;;;;;5029530;28;20450;-70
2021/09/22 10:12:15;;;;;;;6.27;3.30;;;16.50;99.90;;;;;;5038342;28;20485;-71
2021/09/22 10:14:42;;;;;;;3.23;2.90;;;16.50;99.90;;;;;;5029066;28;20231;-71
2021/09/22 10:17:09;;;;;;;5.03;3.40;;;16.50;99.90;;;;;;5012952;28;20490;-71
2021/09/22 10:19:36;;;;;;;3.33;2.77;;;16.60;99.90;;;;;;5047300;28;20529;-71
2021/09/22 10:22:01;;;;;;;3.70;2.87;;;16.60;99.90;;;;;;5048709;28;20896;-71
2021/09/22 10:24:27;;;;;;;3.60;2.93;;;16.70;99.90;;;;;;5064975;28;20501;-71
2021/09/22 10:26:53;;;;;;;3.03;2.50;;;16.80;99.90;;;;;;5065738;28;20231;-71
2021/09/22 10:29:22;;;;;;;3.97;3.50;;;16.80;99.90;;;;;;5014770;28;20285;-71
2021/09/22 10:31:48;;;;;;;6.80;3.50;;;16.80;99.90;;;;;;5045176;28;20458;-71
2021/09/22 10:34:46;;;;;;;3.00;2.70;;;16.90;99.90;;;;;;5054626;28;20812;-71
2021/09/22 10:37:34;;;;;;;3.67;2.53;;;17.00;99.90;;;;;;4998324;28;21016;-70
2021/09/22 10:40:01;;;;;;;3.77;3.30;;;17.10;99.90;;;;;;5051759;28;20457;-71
2021/09/22 10:42:34;;;;;;;4.90;3.10;;;17.10;99.90;;;;;;5034976;28;20457;-71
2021/09/22 10:45:21;;;;;;;4.63;3.43;;;17.30;99.90;;;;;;5026868;28;21016;-71
2021/09/22 10:47:48;;;;;;;3.27;2.97;;;17.30;99.90;;;;;;5032156;28;20550;-71
2021/09/22 10:50:45;;;;;;;3.63;3.30;;;17.40;99.90;;;;;;5024701;28;20461;-70
2021/09/22 10:53:32;;;;;;;2.67;2.30;;;17.40;99.80;;;;;;5039444;28;20466;-71
2021/09/22 10:56:17;;;;;;;5.10;2.93;;;17.60;99.90;;;;;;5048597;28;20466;-71
2021/09/22 10:58:46;;;;;;;3.90;2.93;;;17.80;99.90;;;;;;5029125;28;20491;-71
2021/09/22 11:01:31;;;;;;;2.70;2.50;;;17.80;99.80;;;;;;5052482;28;20457;-71
2021/09/22 11:03:58;;;;;;;2.77;2.57;;;18.10;99.70;;;;;;5045780;28;20465;-72
2021/09/22 11:06:42;;;;;;;6.33;3.00;;;18.30;99.60;;;;;;5051144;28;20521;-71
2021/09/22 11:09:11;;;;;;;3.43;3.00;;;18.50;99.80;;;;;;5046542;28;20576;-71
2021/09/22 11:12:03;;;;;;;4.50;3.40;;;18.60;99.50;;;;;;5031255;28;20490;-71
2021/09/22 11:14:42;;;;;;;3.10;2.80;;;18.80;99.10;;;;;;5048761;28;20458;-71
2021/09/22 11:17:26;;;;;;;2.60;2.40;;;19.00;98.70;;;;;;5032372;28;20528;-72
2021/09/22 11:19:52;;;;;;;3.73;3.13;;;19.20;98.90;;;;;;5061911;28;20457;-71
2021/09/22 11:22:21;;;;;;;3.90;2.90;;;19.30;98.80;;;;;;5033001;28;20450;-69
2021/09/22 11:24:47;;;;;;;3.03;2.73;;;19.40;98.60;;;;;;5028479;28;20775;-71
2021/09/22 11:27:18;;;;;;;4.70;2.70;;;19.70;97.60;;;;;;5061351;28;20499;-70
2021/09/22 11:29:47;;;;;;;2.67;2.47;;;19.80;97.80;;;;;;5035579;28;20472;-71
2021/09/22 11:32:36;;;;;;;3.67;2.70;;;19.70;97.90;;;;;;5053320;28;20465;-71
2021/09/22 11:35:14;;;;;;;2.67;2.43;;;19.80;97.70;;;;;;5043493;28;21102;-71
2021/09/22 11:37:44;;;;;;;5.30;2.50;;;19.90;98.10;;;;;;5058186;28;20500;-71
2021/09/22 11:40:18;;;;;;;4.80;2.73;;;19.90;98.00;;;;;;5053491;28;20453;-72
2021/09/22 11:43:11;;;;;;;4.60;3.07;;;19.90;98.00;;;;;;5052540;28;20453;-71
2021/09/22 11:45:45;;;;;;;2.83;2.53;;;19.80;97.50;;;;;;5036616;28;20541;-71
2021/09/22 11:48:13;;;;;;;6.33;2.63;;;19.70;98.00;;;;;;5037155;28;20468;-70
2021/09/22 11:50:42;;;;;;;6.23;2.53;;;19.80;98.00;;;;;;5036105;28;20486;-72
2021/09/22 11:53:11;;;;;;;3.87;2.67;;;19.90;97.60;;;;;;5051401;28;20988;-71
2021/09/22 11:55:38;;;;;;;2.97;2.73;;;20.00;97.70;;;;;;5034308;28;20462;-71
2021/09/22 11:58:13;;;;;;;3.50;3.20;;;20.00;97.40;;;;;;5036686;28;20445;-71
2021/09/22 12:00:40;;;;;;;2.53;2.33;;;20.00;97.10;;;;;;5069910;28;21106;-71
2021/09/22 12:03:07;;;;;;;2.77;2.57;;;20.00;97.60;;;;;;5053047;28;20445;-71
2021/09/22 12:05:33;;;;;;;3.80;2.50;;;20.10;97.40;;;;;;5036132;28;20453;-71
2021/09/22 12:07:59;;;;;;;2.93;2.63;;;20.30;97.60;;;;;;5066232;28;20465;-72
2021/09/22 12:10:25;;;;;;;5.33;3.10;;;20.40;97.70;;;;;;5049306;28;20219;-71
2021/09/22 12:12:51;;;;;;;3.00;2.70;;;20.50;97.50;;;;;;5029467;28;20598;-71
2021/09/22 12:15:17;;;;;;;3.20;2.90;;;20.60;97.50;;;;;;5051678;28;20718;-71
2021/09/22 12:17:45;;;;;;;3.17;1.97;;;20.80;97.10;;;;;;5035662;28;20504;-71
2021/09/22 12:20:14;;;;;;;3.23;2.90;;;20.80;97.10;;;;;;5052943;28;20446;-71
2021/09/22 12:22:41;;;;;;;3.27;2.23;;;20.80;97.00;;;;;;5051523;28;20465;-70
2021/09/22 12:25:09;;;;;;;5.67;2.33;;;20.80;96.40;;;;;;5069587;28;20453;-70
2021/09/22 12:27:36;;;;;;;2.80;2.60;;;20.90;96.80;;;;;;5034629;28;20477;-72
2021/09/22 12:30:06;;;;;;;2.40;2.20;;;21.00;96.70;;;;;;5035760;28;20458;-71
2021/09/22 12:32:50;;;;;;;2.77;2.47;;;21.10;96.20;;;;;;5035171;28;20454;-71
2021/09/22 12:35:16;;;;;;;3.40;2.93;;;21.20;96.20;;;;;;5079537;28;20457;-71
2021/09/22 12:37:42;;;;;;;3.93;3.17;;;21.50;95.80;;;;;;5052004;28;20469;-71
2021/09/22 12:40:11;;;;;;;3.37;2.70;;;21.60;95.40;;;;;;5036241;28;20230;-71
2021/09/22 12:42:48;;;;;;;2.63;2.27;;;21.60;95.50;;;;;;5034061;28;20210;-71
2021/09/22 12:45:20;;;;;;;3.13;2.80;;;21.60;95.60;;;;;;5052050;28;20484;-71
2021/09/22 12:48:06;;;;;;;2.47;2.20;;;21.50;95.80;;;;;;5035444;28;20465;-71
2021/09/22 12:50:42;;;;;;;7.30;2.30;;;21.60;95.30;;;;;;5031294;28;20457;-71
2021/09/22 12:53:17;;;;;;;3.07;2.60;;;21.60;95.80;;;;;;5035435;28;20490;-71
2021/09/22 12:55:47;;;;;;;3.10;2.10;;;21.70;95.50;;;;;;5069304;28;20445;-72
2021/09/22 12:58:15;;;;;;;3.87;2.40;;;21.70;95.10;;;;;;5070307;28;20536;-69
2021/09/22 13:01:01;;;;;;;3.10;2.50;;;21.50;94.40;;;;;;5047498;28;20461;-71
2021/09/22 13:03:38;;;;;;;4.20;3.03;;;21.50;94.80;;;;;;5050473;28;20453;-71
2021/09/22 13:06:28;;;;;;;2.67;2.40;;;21.50;95.50;;;;;;5052240;28;20457;-71
2021/09/22 13:08:57;;;;;;;4.60;2.53;;;21.60;95.40;;;;;;5051789;28;20462;-71